sensor_id;sensor_type;location;lat;lon;timestamp;temperature;humidity
5086;DHT22;4715;51.660;7.082;2022-09-03T00:00:29;20.00;74.20
5086;DHT22;4715;51.660;7.082;2022-09-03T00:02:59;20.00;74.30
5086;DHT22;4715;51.660;7.082;2022-09-03T00:05:27;19.90;74.30
5086;DHT22;4715;51.660;7.082;2022-09-03T00:07:59;19.90;74.40
5086;DHT22;4715;51.660;7.082;2022-09-03T00:10:28;19.90;74.40
5086;DHT22;4715;51.660;7.082;2022-09-03T00:12:53;19.90;74.60
5086;DHT22;4715;51.660;7.082;2022-09-03T00:15:19;19.80;74.50
5086;DHT22;4715;51.660;7.082;2022-09-03T00:17:46;19.80;74.60
5086;DHT22;4715;51.660;7.082;2022-09-03T00:20:12;19.80;74.60
5086;DHT22;4715;51.660;7.082;2022-09-03T00:22:39;19.80;74.70
5086;DHT22;4715;51.660;7.082;2022-09-03T00:25:04;19.70;74.70
5086;DHT22;4715;51.660;7.082;2022-09-03T00:27:36;19.70;74.80
5086;DHT22;4715;51.660;7.082;2022-09-03T00:30:04;19.70;74.80
5086;DHT22;4715;51.660;7.082;2022-09-03T00:32:33;19.70;74.90
5086;DHT22;4715;51.660;7.082;2022-09-03T00:35:01;19.60;75.00
5086;DHT22;4715;51.660;7.082;2022-09-03T00:37:23;19.60;75.10
5086;DHT22;4715;51.660;7.082;2022-09-03T00:39:47;19.50;75.10
5086;DHT22;4715;51.660;7.082;2022-09-03T00:42:43;19.50;75.10
5086;DHT22;4715;51.660;7.082;2022-09-03T00:45:13;19.50;75.10
5086;DHT22;4715;51.660;7.082;2022-09-03T00:47:48;19.50;75.30
5086;DHT22;4715;51.660;7.082;2022-09-03T00:50:19;19.40;75.30
5086;DHT22;4715;51.660;7.082;2022-09-03T00:52:51;19.40;75.40
5086;DHT22;4715;51.660;7.082;2022-09-03T00:55:24;19.40;75.50
5086;DHT22;4715;51.660;7.082;2022-09-03T00:58:00;19.40;75.50
5086;DHT22;4715;51.660;7.082;2022-09-03T01:00:28;19.40;75.60
5086;DHT22;4715;51.660;7.082;2022-09-03T01:03:00;19.30;75.70
5086;DHT22;4715;51.660;7.082;2022-09-03T01:05:33;19.30;75.70
5086;DHT22;4715;51.660;7.082;2022-09-03T01:08:07;19.30;75.70
5086;DHT22;4715;51.660;7.082;2022-09-03T01:10:40;19.30;75.80
5086;DHT22;4715;51.660;7.082;2022-09-03T01:13:12;19.20;75.80
5086;DHT22;4715;51.660;7.082;2022-09-03T01:15:39;19.20;75.90
5086;DHT22;4715;51.660;7.082;2022-09-03T01:18:12;19.20;76.00
5086;DHT22;4715;51.660;7.082;2022-09-03T01:20:44;19.20;76.10
5086;DHT22;4715;51.660;7.082;2022-09-03T01:26:15;19.10;76.30
5086;DHT22;4715;51.660;7.082;2022-09-03T01:28:48;19.10;76.30
5086;DHT22;4715;51.660;7.082;2022-09-03T01:31:21;19.10;76.40
5086;DHT22;4715;51.660;7.082;2022-09-03T01:33:51;19.00;76.40
5086;DHT22;4715;51.660;7.082;2022-09-03T01:36:24;19.00;76.50
5086;DHT22;4715;51.660;7.082;2022-09-03T01:38:50;19.00;76.60
5086;DHT22;4715;51.660;7.082;2022-09-03T01:41:19;18.90;76.60
5086;DHT22;4715;51.660;7.082;2022-09-03T01:44:10;18.90;76.80
5086;DHT22;4715;51.660;7.082;2022-09-03T01:46:38;18.80;76.90
5086;DHT22;4715;51.660;7.082;2022-09-03T01:49:05;18.70;77.00
5086;DHT22;4715;51.660;7.082;2022-09-03T01:51:32;18.70;77.10
5086;DHT22;4715;51.660;7.082;2022-09-03T01:54:36;18.60;77.10
5086;DHT22;4715;51.660;7.082;2022-09-03T02:00:00;18.60;77.30
5086;DHT22;4715;51.660;7.082;2022-09-03T02:02:24;18.50;77.40
5086;DHT22;4715;51.660;7.082;2022-09-03T02:04:57;18.40;77.40
5086;DHT22;4715;51.660;7.082;2022-09-03T02:07:21;18.40;77.50
5086;DHT22;4715;51.660;7.082;2022-09-03T02:09:44;18.40;77.70
5086;DHT22;4715;51.660;7.082;2022-09-03T02:12:09;18.40;77.70
5086;DHT22;4715;51.660;7.082;2022-09-03T02:14:32;18.30;77.70
5086;DHT22;4715;51.660;7.082;2022-09-03T02:16:57;18.30;77.80
5086;DHT22;4715;51.660;7.082;2022-09-03T02:19:20;18.30;77.90
5086;DHT22;4715;51.660;7.082;2022-09-03T02:21:47;18.30;78.00
5086;DHT22;4715;51.660;7.082;2022-09-03T02:24:11;18.30;78.10
5086;DHT22;4715;51.660;7.082;2022-09-03T02:26:33;18.20;78.00
5086;DHT22;4715;51.660;7.082;2022-09-03T02:28:56;18.20;78.10
5086;DHT22;4715;51.660;7.082;2022-09-03T02:31:18;18.20;78.20
5086;DHT22;4715;51.660;7.082;2022-09-03T02:33:43;18.20;78.30
5086;DHT22;4715;51.660;7.082;2022-09-03T02:36:07;18.10;78.30
5086;DHT22;4715;51.660;7.082;2022-09-03T02:38:30;18.10;78.30
5086;DHT22;4715;51.660;7.082;2022-09-03T02:40:52;18.10;78.40
5086;DHT22;4715;51.660;7.082;2022-09-03T02:43:18;18.10;78.50
5086;DHT22;4715;51.660;7.082;2022-09-03T02:45:45;18.10;78.60
5086;DHT22;4715;51.660;7.082;2022-09-03T02:48:09;18.00;78.60
5086;DHT22;4715;51.660;7.082;2022-09-03T02:50:39;18.00;78.70
5086;DHT22;4715;51.660;7.082;2022-09-03T02:53:01;18.00;78.70
5086;DHT22;4715;51.660;7.082;2022-09-03T02:55:23;17.90;78.70
5086;DHT22;4715;51.660;7.082;2022-09-03T02:57:45;17.90;78.80
5086;DHT22;4715;51.660;7.082;2022-09-03T03:00:08;17.90;78.90
5086;DHT22;4715;51.660;7.082;2022-09-03T03:02:30;17.80;78.90
5086;DHT22;4715;51.660;7.082;2022-09-03T03:04:52;17.80;79.10
5086;DHT22;4715;51.660;7.082;2022-09-03T03:07:15;17.70;79.10
5086;DHT22;4715;51.660;7.082;2022-09-03T03:09:37;17.70;79.20
5086;DHT22;4715;51.660;7.082;2022-09-03T03:11:59;17.70;79.30
5086;DHT22;4715;51.660;7.082;2022-09-03T03:14:21;17.60;79.40
5086;DHT22;4715;51.660;7.082;2022-09-03T03:16:43;17.60;79.50
5086;DHT22;4715;51.660;7.082;2022-09-03T03:19:05;17.60;79.60
5086;DHT22;4715;51.660;7.082;2022-09-03T03:21:27;17.60;79.80
5086;DHT22;4715;51.660;7.082;2022-09-03T03:23:51;17.50;79.80
5086;DHT22;4715;51.660;7.082;2022-09-03T03:26:16;17.40;79.80
5086;DHT22;4715;51.660;7.082;2022-09-03T03:28:39;17.40;80.00
5086;DHT22;4715;51.660;7.082;2022-09-03T03:31:05;17.40;80.10
5086;DHT22;4715;51.660;7.082;2022-09-03T03:33:27;17.40;80.20
5086;DHT22;4715;51.660;7.082;2022-09-03T03:35:49;17.30;80.20
5086;DHT22;4715;51.660;7.082;2022-09-03T03:38:11;17.20;80.30
5086;DHT22;4715;51.660;7.082;2022-09-03T03:40:36;17.20;80.50
5086;DHT22;4715;51.660;7.082;2022-09-03T03:42:58;17.20;80.60
5086;DHT22;4715;51.660;7.082;2022-09-03T03:45:20;17.10;80.60
5086;DHT22;4715;51.660;7.082;2022-09-03T03:47:42;17.20;80.80
5086;DHT22;4715;51.660;7.082;2022-09-03T03:50:05;17.10;80.80
5086;DHT22;4715;51.660;7.082;2022-09-03T03:52:27;17.10;80.80
5086;DHT22;4715;51.660;7.082;2022-09-03T03:54:49;17.10;80.80
5086;DHT22;4715;51.660;7.082;2022-09-03T03:57:13;17.10;81.00
5086;DHT22;4715;51.660;7.082;2022-09-03T03:59:35;17.00;81.00
5086;DHT22;4715;51.660;7.082;2022-09-03T04:01:57;17.00;81.10
5086;DHT22;4715;51.660;7.082;2022-09-03T04:04:19;17.00;81.20
5086;DHT22;4715;51.660;7.082;2022-09-03T04:06:41;17.00;81.30
5086;DHT22;4715;51.660;7.082;2022-09-03T04:09:03;17.00;81.30
5086;DHT22;4715;51.660;7.082;2022-09-03T04:11:25;16.90;81.30
5086;DHT22;4715;51.660;7.082;2022-09-03T04:13:49;16.90;81.30
5086;DHT22;4715;51.660;7.082;2022-09-03T04:16:12;16.90;81.40
5086;DHT22;4715;51.660;7.082;2022-09-03T04:18:35;16.90;81.60
5086;DHT22;4715;51.660;7.082;2022-09-03T04:21:01;16.80;81.50
5086;DHT22;4715;51.660;7.082;2022-09-03T04:23:24;16.80;81.60
5086;DHT22;4715;51.660;7.082;2022-09-03T04:25:51;16.80;81.70
5086;DHT22;4715;51.660;7.082;2022-09-03T04:28:13;16.80;82.60
5086;DHT22;4715;51.660;7.082;2022-09-03T04:30:37;16.70;81.90
5086;DHT22;4715;51.660;7.082;2022-09-03T04:32:59;16.70;82.00
5086;DHT22;4715;51.660;7.082;2022-09-03T04:35:22;16.70;82.10
5086;DHT22;4715;51.660;7.082;2022-09-03T04:37:44;16.60;82.10
5086;DHT22;4715;51.660;7.082;2022-09-03T04:40:07;16.60;82.20
5086;DHT22;4715;51.660;7.082;2022-09-03T04:42:29;16.60;82.20
5086;DHT22;4715;51.660;7.082;2022-09-03T04:44:51;16.60;82.40
5086;DHT22;4715;51.660;7.082;2022-09-03T04:47:14;16.60;82.40
5086;DHT22;4715;51.660;7.082;2022-09-03T04:49:36;16.50;82.40
5086;DHT22;4715;51.660;7.082;2022-09-03T04:51:59;16.50;82.50
5086;DHT22;4715;51.660;7.082;2022-09-03T04:54:22;16.50;82.60
5086;DHT22;4715;51.660;7.082;2022-09-03T04:56:45;16.50;82.70
5086;DHT22;4715;51.660;7.082;2022-09-03T04:59:08;16.50;82.80
5086;DHT22;4715;51.660;7.082;2022-09-03T05:01:31;16.40;82.70
5086;DHT22;4715;51.660;7.082;2022-09-03T05:03:56;16.40;82.90
5086;DHT22;4715;51.660;7.082;2022-09-03T05:06:20;16.40;83.00
5086;DHT22;4715;51.660;7.082;2022-09-03T05:08:43;16.40;83.10
5086;DHT22;4715;51.660;7.082;2022-09-03T05:11:07;16.40;83.10
5086;DHT22;4715;51.660;7.082;2022-09-03T05:13:29;16.40;83.20
5086;DHT22;4715;51.660;7.082;2022-09-03T05:15:57;16.40;83.20
5086;DHT22;4715;51.660;7.082;2022-09-03T05:18:20;16.40;83.30
5086;DHT22;4715;51.660;7.082;2022-09-03T05:20:45;16.40;83.30
5086;DHT22;4715;51.660;7.082;2022-09-03T05:23:10;16.40;83.40
5086;DHT22;4715;51.660;7.082;2022-09-03T05:25:35;16.40;83.50
5086;DHT22;4715;51.660;7.082;2022-09-03T05:28:01;16.50;83.60
5086;DHT22;4715;51.660;7.082;2022-09-03T05:30:32;16.50;83.60
5086;DHT22;4715;51.660;7.082;2022-09-03T05:32:53;16.50;83.70
5086;DHT22;4715;51.660;7.082;2022-09-03T05:35:19;16.50;83.70
5086;DHT22;4715;51.660;7.082;2022-09-03T05:37:45;16.50;83.70
5086;DHT22;4715;51.660;7.082;2022-09-03T05:40:09;16.50;83.80
5086;DHT22;4715;51.660;7.082;2022-09-03T05:42:32;16.60;83.90
5086;DHT22;4715;51.660;7.082;2022-09-03T05:44:59;16.60;84.00
5086;DHT22;4715;51.660;7.082;2022-09-03T05:47:20;16.60;84.00
5086;DHT22;4715;51.660;7.082;2022-09-03T05:49:44;16.60;84.00
5086;DHT22;4715;51.660;7.082;2022-09-03T05:52:08;16.70;84.10
5086;DHT22;4715;51.660;7.082;2022-09-03T05:54:33;16.70;84.10
5086;DHT22;4715;51.660;7.082;2022-09-03T05:56:56;16.80;84.10
5086;DHT22;4715;51.660;7.082;2022-09-03T05:59:20;16.80;84.10
5086;DHT22;4715;51.660;7.082;2022-09-03T06:01:45;16.90;84.10
5086;DHT22;4715;51.660;7.082;2022-09-03T06:04:10;17.00;84.20
5086;DHT22;4715;51.660;7.082;2022-09-03T06:06:36;17.00;84.20
5086;DHT22;4715;51.660;7.082;2022-09-03T06:09:02;17.10;84.20
5086;DHT22;4715;51.660;7.082;2022-09-03T06:11:26;17.20;84.20
5086;DHT22;4715;51.660;7.082;2022-09-03T06:13:49;17.20;84.10
5086;DHT22;4715;51.660;7.082;2022-09-03T06:16:12;17.30;84.10
5086;DHT22;4715;51.660;7.082;2022-09-03T06:18:34;17.40;84.20
5086;DHT22;4715;51.660;7.082;2022-09-03T06:20:57;17.40;84.10
5086;DHT22;4715;51.660;7.082;2022-09-03T06:23:21;17.40;84.00
5086;DHT22;4715;51.660;7.082;2022-09-03T06:25:43;17.50;84.10
5086;DHT22;4715;51.660;7.082;2022-09-03T06:28:07;17.50;84.00
5086;DHT22;4715;51.660;7.082;2022-09-03T06:30:30;17.60;84.10
5086;DHT22;4715;51.660;7.082;2022-09-03T06:32:53;17.60;84.10
5086;DHT22;4715;51.660;7.082;2022-09-03T06:35:16;17.70;84.10
5086;DHT22;4715;51.660;7.082;2022-09-03T06:37:38;17.70;84.10
5086;DHT22;4715;51.660;7.082;2022-09-03T06:40:00;17.80;84.10
5086;DHT22;4715;51.660;7.082;2022-09-03T06:42:23;17.90;84.10
5086;DHT22;4715;51.660;7.082;2022-09-03T06:44:46;18.00;84.10
5086;DHT22;4715;51.660;7.082;2022-09-03T06:47:08;18.10;84.10
5086;DHT22;4715;51.660;7.082;2022-09-03T06:49:30;18.10;84.00
5086;DHT22;4715;51.660;7.082;2022-09-03T06:51:53;18.20;84.00
5086;DHT22;4715;51.660;7.082;2022-09-03T06:54:14;18.30;84.00
5086;DHT22;4715;51.660;7.082;2022-09-03T06:56:38;18.40;84.00
5086;DHT22;4715;51.660;7.082;2022-09-03T06:59:04;18.50;84.00
5086;DHT22;4715;51.660;7.082;2022-09-03T07:01:29;18.60;84.00
5086;DHT22;4715;51.660;7.082;2022-09-03T07:03:53;18.70;83.90
5086;DHT22;4715;51.660;7.082;2022-09-03T07:06:17;18.80;83.80
5086;DHT22;4715;51.660;7.082;2022-09-03T07:08:41;18.90;83.70
5086;DHT22;4715;51.660;7.082;2022-09-03T07:11:07;19.10;83.70
5086;DHT22;4715;51.660;7.082;2022-09-03T07:13:30;19.20;83.60
5086;DHT22;4715;51.660;7.082;2022-09-03T07:16:00;19.30;83.40
5086;DHT22;4715;51.660;7.082;2022-09-03T07:18:23;19.50;84.10
5086;DHT22;4715;51.660;7.082;2022-09-03T07:20:45;19.60;83.30
5086;DHT22;4715;51.660;7.082;2022-09-03T07:23:15;19.70;83.20
5086;DHT22;4715;51.660;7.082;2022-09-03T07:25:38;19.80;83.10
5086;DHT22;4715;51.660;7.082;2022-09-03T07:28:08;20.00;83.00
5086;DHT22;4715;51.660;7.082;2022-09-03T07:30:31;20.10;82.90
5086;DHT22;4715;51.660;7.082;2022-09-03T07:32:53;20.20;82.70
5086;DHT22;4715;51.660;7.082;2022-09-03T07:35:16;20.30;82.60
5086;DHT22;4715;51.660;7.082;2022-09-03T07:37:45;20.40;82.50
5086;DHT22;4715;51.660;7.082;2022-09-03T07:40:10;20.50;82.50
5086;DHT22;4715;51.660;7.082;2022-09-03T07:42:35;20.60;82.40
5086;DHT22;4715;51.660;7.082;2022-09-03T07:44:58;20.70;82.40
5086;DHT22;4715;51.660;7.082;2022-09-03T07:47:21;20.80;82.30
5086;DHT22;4715;51.660;7.082;2022-09-03T07:49:45;20.90;82.20
5086;DHT22;4715;51.660;7.082;2022-09-03T07:52:09;20.90;81.90
5086;DHT22;4715;51.660;7.082;2022-09-03T07:54:31;21.00;81.90
5086;DHT22;4715;51.660;7.082;2022-09-03T07:56:53;21.10;82.60
5086;DHT22;4715;51.660;7.082;2022-09-03T07:59:16;21.20;81.80
5086;DHT22;4715;51.660;7.082;2022-09-03T08:01:42;21.30;81.70
5086;DHT22;4715;51.660;7.082;2022-09-03T08:04:05;21.40;81.60
5086;DHT22;4715;51.660;7.082;2022-09-03T08:06:36;21.50;81.50
5086;DHT22;4715;51.660;7.082;2022-09-03T08:09:04;21.50;81.30
5086;DHT22;4715;51.660;7.082;2022-09-03T08:11:27;21.70;81.40
5086;DHT22;4715;51.660;7.082;2022-09-03T08:13:57;21.80;81.30
5086;DHT22;4715;51.660;7.082;2022-09-03T08:16:22;21.90;81.20
5086;DHT22;4715;51.660;7.082;2022-09-03T08:18:44;22.00;81.90
5086;DHT22;4715;51.660;7.082;2022-09-03T08:21:09;22.10;81.00
5086;DHT22;4715;51.660;7.082;2022-09-03T08:23:36;22.10;80.70
5086;DHT22;4715;51.660;7.082;2022-09-03T08:26:02;22.20;80.60
5086;DHT22;4715;51.660;7.082;2022-09-03T08:28:24;22.30;80.60
5086;DHT22;4715;51.660;7.082;2022-09-03T08:30:46;22.40;80.60
5086;DHT22;4715;51.660;7.082;2022-09-03T08:33:08;22.50;80.50
5086;DHT22;4715;51.660;7.082;2022-09-03T08:35:30;22.60;80.30
5086;DHT22;4715;51.660;7.082;2022-09-03T08:37:57;22.70;80.30
5086;DHT22;4715;51.660;7.082;2022-09-03T08:40:24;22.80;80.20
5086;DHT22;4715;51.660;7.082;2022-09-03T08:42:57;23.00;80.10
5086;DHT22;4715;51.660;7.082;2022-09-03T08:45:25;23.20;80.70
5086;DHT22;4715;51.660;7.082;2022-09-03T08:47:55;23.20;79.60
5086;DHT22;4715;51.660;7.082;2022-09-03T08:50:23;23.30;79.40
5086;DHT22;4715;51.660;7.082;2022-09-03T08:52:48;23.50;79.50
5086;DHT22;4715;51.660;7.082;2022-09-03T08:55:19;23.60;79.30
5086;DHT22;4715;51.660;7.082;2022-09-03T08:57:47;23.70;79.00
5086;DHT22;4715;51.660;7.082;2022-09-03T09:00:11;23.80;78.60
5086;DHT22;4715;51.660;7.082;2022-09-03T09:02:40;23.80;78.40
5086;DHT22;4715;51.660;7.082;2022-09-03T09:05:11;23.90;78.30
5086;DHT22;4715;51.660;7.082;2022-09-03T09:07:41;23.90;78.00
5086;DHT22;4715;51.660;7.082;2022-09-03T09:10:11;24.00;77.90
5086;DHT22;4715;51.660;7.082;2022-09-03T09:12:40;24.10;77.80
5086;DHT22;4715;51.660;7.082;2022-09-03T09:15:09;24.20;77.80
5086;DHT22;4715;51.660;7.082;2022-09-03T09:17:47;24.20;77.60
5086;DHT22;4715;51.660;7.082;2022-09-03T09:20:17;24.40;77.40
5086;DHT22;4715;51.660;7.082;2022-09-03T09:22:44;24.40;77.20
5086;DHT22;4715;51.660;7.082;2022-09-03T09:25:10;24.40;76.80
5086;DHT22;4715;51.660;7.082;2022-09-03T09:27:34;24.40;76.70
5086;DHT22;4715;51.660;7.082;2022-09-03T09:29:58;24.50;76.70
5086;DHT22;4715;51.660;7.082;2022-09-03T09:32:22;24.60;77.50
5086;DHT22;4715;51.660;7.082;2022-09-03T09:34:45;24.60;77.20
5086;DHT22;4715;51.660;7.082;2022-09-03T09:37:10;24.70;76.40
5086;DHT22;4715;51.660;7.082;2022-09-03T09:39:33;24.80;76.50
5086;DHT22;4715;51.660;7.082;2022-09-03T09:41:58;25.00;76.40
5086;DHT22;4715;51.660;7.082;2022-09-03T09:44:25;25.00;76.00
5086;DHT22;4715;51.660;7.082;2022-09-03T09:46:47;25.10;76.00
5086;DHT22;4715;51.660;7.082;2022-09-03T09:49:28;25.20;76.00
5086;DHT22;4715;51.660;7.082;2022-09-03T09:52:02;25.40;75.80
5086;DHT22;4715;51.660;7.082;2022-09-03T09:54:25;25.50;75.70
5086;DHT22;4715;51.660;7.082;2022-09-03T09:56:58;25.60;75.50
5086;DHT22;4715;51.660;7.082;2022-09-03T09:59:21;25.70;75.20
5086;DHT22;4715;51.660;7.082;2022-09-03T10:01:43;25.80;75.10
5086;DHT22;4715;51.660;7.082;2022-09-03T10:04:09;25.90;75.00
5086;DHT22;4715;51.660;7.082;2022-09-03T10:06:31;26.00;74.90
5086;DHT22;4715;51.660;7.082;2022-09-03T10:09:13;26.00;74.60
5086;DHT22;4715;51.660;7.082;2022-09-03T10:11:37;26.10;74.60
5086;DHT22;4715;51.660;7.082;2022-09-03T10:14:02;26.20;74.40
5086;DHT22;4715;51.660;7.082;2022-09-03T10:16:29;26.30;74.40
5086;DHT22;4715;51.660;7.082;2022-09-03T10:18:59;26.30;74.30
5086;DHT22;4715;51.660;7.082;2022-09-03T10:21:28;26.50;74.20
5086;DHT22;4715;51.660;7.082;2022-09-03T10:23:55;26.60;73.90
5086;DHT22;4715;51.660;7.082;2022-09-03T10:26:21;26.60;73.80
5086;DHT22;4715;51.660;7.082;2022-09-03T10:28:50;26.60;73.50
5086;DHT22;4715;51.660;7.082;2022-09-03T10:31:35;26.60;73.40
5086;DHT22;4715;51.660;7.082;2022-09-03T10:34:05;26.70;73.50
5086;DHT22;4715;51.660;7.082;2022-09-03T10:36:35;26.70;73.50
5086;DHT22;4715;51.660;7.082;2022-09-03T10:39:03;26.80;73.40
5086;DHT22;4715;51.660;7.082;2022-09-03T10:41:40;26.90;73.20
5086;DHT22;4715;51.660;7.082;2022-09-03T10:44:24;27.00;72.90
5086;DHT22;4715;51.660;7.082;2022-09-03T10:47:04;27.00;73.00
5086;DHT22;4715;51.660;7.082;2022-09-03T10:49:41;27.10;72.90
5086;DHT22;4715;51.660;7.082;2022-09-03T10:52:13;27.20;72.60
5086;DHT22;4715;51.660;7.082;2022-09-03T10:54:47;27.10;72.50
5086;DHT22;4715;51.660;7.082;2022-09-03T10:57:19;27.20;72.50
5086;DHT22;4715;51.660;7.082;2022-09-03T10:59:59;27.30;72.30
5086;DHT22;4715;51.660;7.082;2022-09-03T11:02:54;27.30;72.40
5086;DHT22;4715;51.660;7.082;2022-09-03T11:05:21;27.40;72.20
5086;DHT22;4715;51.660;7.082;2022-09-03T11:07:52;27.40;72.30
5086;DHT22;4715;51.660;7.082;2022-09-03T11:10:21;27.50;72.20
5086;DHT22;4715;51.660;7.082;2022-09-03T11:12:52;27.70;72.20
5086;DHT22;4715;51.660;7.082;2022-09-03T11:15:23;27.90;72.80
5086;DHT22;4715;51.660;7.082;2022-09-03T11:17:49;28.10;71.90
5086;DHT22;4715;51.660;7.082;2022-09-03T11:20:17;28.20;71.70
5086;DHT22;4715;51.660;7.082;2022-09-03T11:22:41;28.20;71.40
5086;DHT22;4715;51.660;7.082;2022-09-03T11:25:05;28.30;71.30
5086;DHT22;4715;51.660;7.082;2022-09-03T11:27:36;28.40;71.30
5086;DHT22;4715;51.660;7.082;2022-09-03T11:30:10;28.50;71.20
5086;DHT22;4715;51.660;7.082;2022-09-03T11:32:48;28.60;71.00
5086;DHT22;4715;51.660;7.082;2022-09-03T11:35:14;28.70;70.70
5086;DHT22;4715;51.660;7.082;2022-09-03T11:37:49;28.80;70.70
5086;DHT22;4715;51.660;7.082;2022-09-03T11:40:15;28.90;70.50
5086;DHT22;4715;51.660;7.082;2022-09-03T11:42:39;28.90;70.50
5086;DHT22;4715;51.660;7.082;2022-09-03T11:45:34;29.00;70.40
5086;DHT22;4715;51.660;7.082;2022-09-03T11:47:57;29.00;70.10
5086;DHT22;4715;51.660;7.082;2022-09-03T11:50:22;28.90;69.80
5086;DHT22;4715;51.660;7.082;2022-09-03T11:52:44;28.70;69.30
5086;DHT22;4715;51.660;7.082;2022-09-03T11:55:07;28.50;69.70
5086;DHT22;4715;51.660;7.082;2022-09-03T11:57:30;28.20;69.80
5086;DHT22;4715;51.660;7.082;2022-09-03T11:59:53;28.10;71.10
5086;DHT22;4715;51.660;7.082;2022-09-03T12:02:24;28.00;70.60
5086;DHT22;4715;51.660;7.082;2022-09-03T12:04:51;28.10;71.20
5086;DHT22;4715;51.660;7.082;2022-09-03T12:07:42;28.00;70.20
5086;DHT22;4715;51.660;7.082;2022-09-03T12:13:01;27.80;69.90
5086;DHT22;4715;51.660;7.082;2022-09-03T12:15:45;27.80;69.90
5086;DHT22;4715;51.660;7.082;2022-09-03T12:18:15;27.70;70.10
5086;DHT22;4715;51.660;7.082;2022-09-03T12:20:40;27.70;70.20
5086;DHT22;4715;51.660;7.082;2022-09-03T12:23:02;27.70;70.10
5086;DHT22;4715;51.660;7.082;2022-09-03T12:25:24;27.80;70.30
5086;DHT22;4715;51.660;7.082;2022-09-03T12:27:47;28.00;69.80
5086;DHT22;4715;51.660;7.082;2022-09-03T12:30:15;28.10;69.70
5086;DHT22;4715;51.660;7.082;2022-09-03T12:32:37;28.20;70.40
5086;DHT22;4715;51.660;7.082;2022-09-03T12:35:11;28.30;69.20
5086;DHT22;4715;51.660;7.082;2022-09-03T12:38:03;28.40;69.10
5086;DHT22;4715;51.660;7.082;2022-09-03T12:40:26;28.40;69.10
5086;DHT22;4715;51.660;7.082;2022-09-03T12:42:49;28.50;69.20
5086;DHT22;4715;51.660;7.082;2022-09-03T12:45:13;28.60;68.90
5086;DHT22;4715;51.660;7.082;2022-09-03T12:47:38;28.60;68.90
5086;DHT22;4715;51.660;7.082;2022-09-03T12:50:06;28.70;69.00
5086;DHT22;4715;51.660;7.082;2022-09-03T12:52:33;28.90;69.00
5086;DHT22;4715;51.660;7.082;2022-09-03T12:55:00;29.10;68.80
5086;DHT22;4715;51.660;7.082;2022-09-03T12:57:28;29.30;68.70
5086;DHT22;4715;51.660;7.082;2022-09-03T12:59:55;29.40;69.30
5086;DHT22;4715;51.660;7.082;2022-09-03T13:02:21;29.50;68.30
5086;DHT22;4715;51.660;7.082;2022-09-03T13:04:45;29.50;68.00
5086;DHT22;4715;51.660;7.082;2022-09-03T13:07:11;29.40;67.90
5086;DHT22;4715;51.660;7.082;2022-09-03T13:09:38;29.10;68.10
5086;DHT22;4715;51.660;7.082;2022-09-03T13:12:01;29.10;68.50
5086;DHT22;4715;51.660;7.082;2022-09-03T13:14:25;29.10;68.50
5086;DHT22;4715;51.660;7.082;2022-09-03T13:17:01;29.20;68.70
5086;DHT22;4715;51.660;7.082;2022-09-03T13:19:40;29.30;68.30
5086;DHT22;4715;51.660;7.082;2022-09-03T13:22:11;29.50;68.30
5086;DHT22;4715;51.660;7.082;2022-09-03T13:25:07;29.60;68.10
5086;DHT22;4715;51.660;7.082;2022-09-03T13:27:40;29.60;67.60
5086;DHT22;4715;51.660;7.082;2022-09-03T13:30:07;29.60;67.80
5086;DHT22;4715;51.660;7.082;2022-09-03T13:32:41;29.70;67.90
5086;DHT22;4715;51.660;7.082;2022-09-03T13:35:09;29.80;67.40
5086;DHT22;4715;51.660;7.082;2022-09-03T13:37:36;29.80;67.40
5086;DHT22;4715;51.660;7.082;2022-09-03T13:40:05;30.00;67.40
5086;DHT22;4715;51.660;7.082;2022-09-03T13:42:39;30.10;67.10
5086;DHT22;4715;51.660;7.082;2022-09-03T13:45:08;30.20;66.60
5086;DHT22;4715;51.660;7.082;2022-09-03T13:47:39;30.20;66.50
5086;DHT22;4715;51.660;7.082;2022-09-03T13:50:24;30.20;66.70
5086;DHT22;4715;51.660;7.082;2022-09-03T13:52:49;30.30;66.60
5086;DHT22;4715;51.660;7.082;2022-09-03T13:55:21;30.40;66.10
5086;DHT22;4715;51.660;7.082;2022-09-03T13:57:49;30.50;66.10
5086;DHT22;4715;51.660;7.082;2022-09-03T14:00:23;30.60;65.70
5086;DHT22;4715;51.660;7.082;2022-09-03T14:02:51;30.70;65.70
5086;DHT22;4715;51.660;7.082;2022-09-03T14:05:25;30.70;65.20
5086;DHT22;4715;51.660;7.082;2022-09-03T14:08:03;30.90;65.10
5086;DHT22;4715;51.660;7.082;2022-09-03T14:10:42;31.00;65.20
5086;DHT22;4715;51.660;7.082;2022-09-03T14:13:15;31.30;64.70
5086;DHT22;4715;51.660;7.082;2022-09-03T14:15:43;31.30;64.00
5086;DHT22;4715;51.660;7.082;2022-09-03T14:18:12;31.20;64.10
5086;DHT22;4715;51.660;7.082;2022-09-03T14:20:40;31.40;64.20
5086;DHT22;4715;51.660;7.082;2022-09-03T14:23:09;31.60;64.20
5086;DHT22;4715;51.660;7.082;2022-09-03T14:25:51;31.90;63.90
5086;DHT22;4715;51.660;7.082;2022-09-03T14:28:14;32.20;63.80
5086;DHT22;4715;51.660;7.082;2022-09-03T14:30:47;32.40;63.00
5086;DHT22;4715;51.660;7.082;2022-09-03T14:33:14;32.40;62.90
5086;DHT22;4715;51.660;7.082;2022-09-03T14:35:54;32.30;62.70
5086;DHT22;4715;51.660;7.082;2022-09-03T14:38:33;32.00;62.70
5086;DHT22;4715;51.660;7.082;2022-09-03T14:41:04;31.50;62.80
5086;DHT22;4715;51.660;7.082;2022-09-03T14:46:19;30.80;63.70
5086;DHT22;4715;51.660;7.082;2022-09-03T14:49:11;30.60;64.50
5086;DHT22;4715;51.660;7.082;2022-09-03T14:51:53;30.80;64.60
5086;DHT22;4715;51.660;7.082;2022-09-03T14:54:33;30.90;64.30
5086;DHT22;4715;51.660;7.082;2022-09-03T14:57:08;31.00;64.30
5086;DHT22;4715;51.660;7.082;2022-09-03T14:59:53;30.90;64.50
5086;DHT22;4715;51.660;7.082;2022-09-03T15:08:44;30.10;65.80
5086;DHT22;4715;51.660;7.082;2022-09-03T15:11:15;30.00;66.40
5086;DHT22;4715;51.660;7.082;2022-09-03T15:13:47;29.90;66.70
5086;DHT22;4715;51.660;7.082;2022-09-03T15:16:27;29.90;66.90
5086;DHT22;4715;51.660;7.082;2022-09-03T15:19:02;29.80;67.10
5086;DHT22;4715;51.660;7.082;2022-09-03T15:21:40;29.70;67.40
5086;DHT22;4715;51.660;7.082;2022-09-03T15:24:08;29.60;67.70
5086;DHT22;4715;51.660;7.082;2022-09-03T15:26:50;29.40;68.00
5086;DHT22;4715;51.660;7.082;2022-09-03T15:29:31;29.40;68.30
5086;DHT22;4715;51.660;7.082;2022-09-03T15:32:03;29.30;68.50
5086;DHT22;4715;51.660;7.082;2022-09-03T15:34:40;29.30;68.80
5086;DHT22;4715;51.660;7.082;2022-09-03T15:37:10;29.20;68.90
5086;DHT22;4715;51.660;7.082;2022-09-03T15:39:35;29.20;69.30
5086;DHT22;4715;51.660;7.082;2022-09-03T15:42:06;29.30;69.50
5086;DHT22;4715;51.660;7.082;2022-09-03T15:44:39;29.30;69.40
5086;DHT22;4715;51.660;7.082;2022-09-03T15:47:08;29.20;69.20
5086;DHT22;4715;51.660;7.082;2022-09-03T15:49:45;29.10;69.40
5086;DHT22;4715;51.660;7.082;2022-09-03T15:52:22;29.00;69.60
5086;DHT22;4715;51.660;7.082;2022-09-03T15:54:55;29.00;69.70
5086;DHT22;4715;51.660;7.082;2022-09-03T15:57:23;28.90;69.90
5086;DHT22;4715;51.660;7.082;2022-09-03T15:59:54;29.00;70.00
5086;DHT22;4715;51.660;7.082;2022-09-03T16:02:26;29.00;70.00
5086;DHT22;4715;51.660;7.082;2022-09-03T16:05:06;28.90;70.00
5086;DHT22;4715;51.660;7.082;2022-09-03T16:07:38;28.90;70.20
5086;DHT22;4715;51.660;7.082;2022-09-03T16:10:07;28.80;70.40
5086;DHT22;4715;51.660;7.082;2022-09-03T16:12:35;28.80;70.50
5086;DHT22;4715;51.660;7.082;2022-09-03T16:15:04;28.70;70.50
5086;DHT22;4715;51.660;7.082;2022-09-03T16:17:31;28.60;70.90
5086;DHT22;4715;51.660;7.082;2022-09-03T16:20:01;28.50;71.20
5086;DHT22;4715;51.660;7.082;2022-09-03T16:22:26;28.50;71.40